Time;durP1;ratioP1;P1;durP2;ratioP2;P2;SDS_P1;SDS_P2;PMS_P1;PMS_P2;Temp;Humidity;BMP_temperature;BMP_pressure;BME280_temperature;BME280_humidity;BME280_pressure;Samples;Min_cycle;Max_cycle;Signal;HPM_P1;HPM_P2
2022/10/09 00:00:45;;;;;;;16.30;6.30;;;7.80;99.90;;;;;;5061058;28;20048;-51
2022/10/09 00:03:12;;;;;;;12.40;5.73;;;7.80;99.90;;;;;;5062422;28;20481;-47
2022/10/09 00:05:38;;;;;;;11.38;5.93;;;7.70;99.90;;;;;;5061499;28;20123;-49
2022/10/09 00:08:03;;;;;;;8.05;5.55;;;7.70;99.90;;;;;;5053912;28;20043;-51
2022/10/09 00:10:29;;;;;;;12.43;5.65;;;7.70;99.90;;;;;;5058221;28;20041;-51
2022/10/09 00:12:55;;;;;;;10.30;5.97;;;7.70;99.90;;;;;;5062951;28;20037;-49
2022/10/09 00:15:21;;;;;;;12.60;5.72;;;7.60;99.90;;;;;;5056618;28;20132;-51
2022/10/09 00:17:47;;;;;;;12.90;5.68;;;7.60;99.90;;;;;;5061235;28;20169;-50
2022/10/09 00:20:13;;;;;;;9.48;5.53;;;7.60;99.90;;;;;;5054733;28;20041;-48
2022/10/09 00:22:39;;;;;;;13.05;5.78;;;7.60;99.90;;;;;;5056776;28;20049;-51
2022/10/09 00:25:05;;;;;;;10.60;5.68;;;7.60;99.90;;;;;;5059388;28;20036;-47
2022/10/09 00:27:31;;;;;;;9.60;5.80;;;7.50;99.90;;;;;;5059878;28;20032;-48
2022/10/09 00:29:56;;;;;;;11.95;5.85;;;7.50;99.90;;;;;;5055354;28;20458;-49
2022/10/09 00:32:22;;;;;;;10.25;6.07;;;7.50;99.90;;;;;;5060980;28;20047;-49
2022/10/09 00:34:47;;;;;;;16.83;6.18;;;7.50;99.90;;;;;;5059840;28;20036;-48
2022/10/09 00:37:13;;;;;;;10.18;5.93;;;7.50;99.90;;;;;;5058960;28;20044;-51
2022/10/09 00:39:39;;;;;;;14.30;5.88;;;7.40;99.90;;;;;;5056314;28;20051;-50
2022/10/09 00:42:05;;;;;;;15.00;5.90;;;7.40;99.90;;;;;;5056446;28;20094;-48
2022/10/09 00:44:58;;;;;;;11.90;6.07;;;7.40;99.90;;;;;;5051902;28;20402;-50
2022/10/09 00:47:27;;;;;;;11.93;6.00;;;7.40;99.90;;;;;;5043647;28;20056;-49
2022/10/09 00:49:58;;;;;;;9.38;5.55;;;7.40;99.90;;;;;;5060835;28;20045;-52
2022/10/09 00:52:25;;;;;;;10.45;5.57;;;7.40;99.90;;;;;;5055886;28;20487;-48
2022/10/09 00:54:52;;;;;;;9.43;4.90;;;7.30;99.90;;;;;;5058386;28;20151;-50
2022/10/09 00:57:18;;;;;;;13.30;5.97;;;7.30;99.90;;;;;;5061147;28;20133;-48
2022/10/09 00:59:44;;;;;;;15.43;6.30;;;7.30;99.90;;;;;;5056092;28;20044;-51
2022/10/09 01:02:10;;;;;;;13.95;6.93;;;7.30;99.90;;;;;;5062686;28;20121;-50
2022/10/09 01:04:35;;;;;;;15.25;6.60;;;7.30;99.90;;;;;;5060248;28;20137;-49
2022/10/09 01:07:16;;;;;;;10.02;5.85;;;7.30;99.90;;;;;;5056067;28;20391;-50
2022/10/09 01:09:53;;;;;;;12.00;6.65;;;7.20;99.90;;;;;;5054522;28;20590;-52
2022/10/09 01:12:30;;;;;;;11.48;6.15;;;7.20;99.90;;;;;;5058115;28;20513;-50
2022/10/09 01:14:59;;;;;;;16.03;7.03;;;7.20;99.90;;;;;;5060102;28;20040;-47
2022/10/09 01:17:58;;;;;;;15.18;7.35;;;7.10;99.90;;;;;;5055822;28;20090;-46
2022/10/09 01:20:45;;;;;;;13.02;7.28;;;7.10;99.90;;;;;;5055100;28;20048;-50
2022/10/09 01:23:23;;;;;;;12.43;7.15;;;7.10;99.90;;;;;;5052266;28;20044;-54
2022/10/09 01:26:30;;;;;;;11.75;6.97;;;7.10;99.90;;;;;;5061544;28;20049;-50
2022/10/09 01:29:00;;;;;;;15.80;6.13;;;7.10;99.90;;;;;;5056321;28;20770;-52
2022/10/09 01:31:29;;;;;;;14.25;7.20;;;7.00;99.90;;;;;;5061333;28;20041;-51
2022/10/09 01:33:57;;;;;;;15.43;6.95;;;7.10;99.90;;;;;;5063839;28;20109;-51
2022/10/09 01:36:23;;;;;;;;;;;7.10;99.90;;;;;;5058517;28;20056;-51
2022/10/09 01:38:50;;;;;;;11.10;6.47;;;7.00;99.90;;;;;;5063194;28;19971;-52
2022/10/09 01:41:16;;;;;;;14.38;7.20;;;7.00;99.90;;;;;;5061116;28;20048;-51
2022/10/09 01:43:42;;;;;;;15.55;7.00;;;7.00;99.90;;;;;;5042579;28;20143;-49
2022/10/09 01:46:22;;;;;;;9.82;6.45;;;7.00;99.90;;;;;;5059822;28;20044;-53
2022/10/09 01:49:26;;;;;;;12.52;6.30;;;7.00;99.90;;;;;;5062464;28;20502;-50
2022/10/09 01:52:15;;;;;;;18.10;7.55;;;7.00;99.90;;;;;;5041865;28;20068;-51
2022/10/09 01:55:01;;;;;;;10.75;6.60;;;7.00;99.90;;;;;;5060106;28;20044;-48
2022/10/09 01:58:02;;;;;;;12.05;7.57;;;7.00;99.90;;;;;;5061996;28;20501;-47
2022/10/09 02:00:32;;;;;;;12.05;6.65;;;7.00;99.90;;;;;;5058609;28;20568;-50
2022/10/09 02:02:59;;;;;;;16.15;7.22;;;6.90;99.90;;;;;;5062537;28;20045;-52
2022/10/09 02:05:27;;;;;;;14.65;7.53;;;6.90;99.90;;;;;;5058501;28;20055;-50
2022/10/09 02:07:55;;;;;;;14.73;7.47;;;6.90;99.90;;;;;;5054872;28;20055;-49
2022/10/09 02:10:22;;;;;;;13.25;6.97;;;6.80;99.90;;;;;;5054405;28;20461;-48
2022/10/09 02:12:58;;;;;;;8.75;5.78;;;6.80;99.90;;;;;;5055471;28;20045;-51
2022/10/09 02:15:31;;;;;;;14.30;8.10;;;6.90;99.90;;;;;;5056345;28;20045;-50
2022/10/09 02:18:04;;;;;;;11.10;7.45;;;6.80;99.90;;;;;;5058040;28;20116;-48
2022/10/09 02:20:33;;;;;;;13.95;7.75;;;6.80;99.90;;;;;;5051400;28;20060;-49
2022/10/09 02:23:03;;;;;;;12.02;7.60;;;6.80;99.90;;;;;;5056474;28;20097;-48
2022/10/09 02:25:28;;;;;;;13.60;8.52;;;6.70;99.90;;;;;;5057025;28;20388;-49
2022/10/09 02:27:55;;;;;;;14.88;8.18;;;6.80;99.90;;;;;;5058406;28;20612;-49
2022/10/09 02:30:25;;;;;;;10.70;7.70;;;6.70;99.90;;;;;;5053208;28;20033;-51
2022/10/09 02:32:54;;;;;;;13.32;8.15;;;6.70;99.90;;;;;;5057031;28;20089;-52
2022/10/09 02:35:20;;;;;;;15.07;8.25;;;6.70;99.90;;;;;;5056064;28;20056;-49
2022/10/09 02:37:47;;;;;;;14.25;7.43;;;6.70;99.90;;;;;;5055247;28;20647;-52
2022/10/09 02:40:14;;;;;;;12.73;7.65;;;6.60;99.90;;;;;;5058552;28;20048;-47
2022/10/09 02:42:40;;;;;;;11.18;6.68;;;6.50;99.90;;;;;;5055375;28;20059;-47
2022/10/09 02:45:07;;;;;;;15.23;7.80;;;6.60;99.90;;;;;;5054269;28;20049;-51
2022/10/09 02:47:33;;;;;;;10.57;7.13;;;6.50;99.90;;;;;;5056680;28;20123;-48
2022/10/09 02:49:58;;;;;;;10.93;6.72;;;6.50;99.90;;;;;;5059081;28;20447;-47
2022/10/09 02:52:24;;;;;;;13.25;7.93;;;6.40;99.90;;;;;;5055128;28;20495;-48
2022/10/09 02:54:49;;;;;;;9.73;7.00;;;6.40;99.90;;;;;;5057940;28;20120;-48
2022/10/09 02:57:15;;;;;;;11.52;7.18;;;6.40;99.90;;;;;;5059483;28;20036;-48
2022/10/09 02:59:40;;;;;;;13.63;7.70;;;6.40;99.90;;;;;;5056817;28;20049;-51
2022/10/09 03:02:06;;;;;;;11.82;6.82;;;6.40;99.90;;;;;;5056412;28;20044;-47
2022/10/09 03:04:32;;;;;;;15.00;7.45;;;6.40;99.90;;;;;;5054699;28;20041;-48
2022/10/09 03:06:58;;;;;;;10.45;7.03;;;6.40;99.90;;;;;;5056368;28;20437;-47
2022/10/09 03:09:23;;;;;;;9.80;6.93;;;6.40;99.90;;;;;;5059298;28;20045;-47
2022/10/09 03:11:49;;;;;;;12.43;7.25;;;6.30;99.90;;;;;;5060060;28;20969;-54
2022/10/09 03:14:15;;;;;;;8.90;6.95;;;6.30;99.90;;;;;;5053259;28;20037;-48
2022/10/09 03:16:40;;;;;;;13.77;6.75;;;6.30;99.90;;;;;;5056413;28;20124;-52
2022/10/09 03:19:06;;;;;;;11.25;7.30;;;6.20;99.90;;;;;;5057738;28;20051;-52
2022/10/09 03:21:32;;;;;;;11.32;6.57;;;6.20;99.90;;;;;;5053535;28;20461;-50
2022/10/09 03:23:57;;;;;;;11.98;6.75;;;6.20;99.90;;;;;;5054841;28;20434;-50
2022/10/09 03:26:26;;;;;;;9.82;6.55;;;6.20;99.90;;;;;;5057973;28;20068;-51
2022/10/09 03:28:53;;;;;;;11.60;6.75;;;6.10;99.90;;;;;;5057133;28;20437;-50
2022/10/09 03:31:21;;;;;;;14.73;7.65;;;6.10;99.90;;;;;;5056694;28;20083;-48
2022/10/09 03:33:47;;;;;;;8.77;5.68;;;6.10;99.90;;;;;;5056028;28;20072;-49
2022/10/09 03:36:13;;;;;;;7.93;6.30;;;6.10;99.90;;;;;;5056701;28;20086;-48
2022/10/09 03:38:39;;;;;;;9.27;6.57;;;6.10;99.90;;;;;;5056613;28;20037;-47
2022/10/09 03:41:05;;;;;;;14.30;8.50;;;6.10;99.90;;;;;;5052826;28;20509;-49
2022/10/09 03:43:31;;;;;;;13.70;7.53;;;6.10;99.90;;;;;;5057241;28;20051;-52
2022/10/09 03:45:57;;;;;;;18.45;8.20;;;6.10;99.90;;;;;;5052830;28;20386;-49
2022/10/09 03:48:23;;;;;;;12.18;7.22;;;6.10;99.90;;;;;;5054680;28;20135;-47
2022/10/09 03:50:49;;;;;;;15.55;7.80;;;6.10;99.90;;;;;;5051772;28;20478;-49
2022/10/09 03:53:16;;;;;;;15.13;8.30;;;6.10;99.90;;;;;;5055554;28;20047;-50
2022/10/09 03:55:42;;;;;;;13.48;7.53;;;6.20;99.90;;;;;;5051874;28;20044;-50
2022/10/09 03:58:09;;;;;;;10.55;7.20;;;6.10;99.90;;;;;;5056423;28;20449;-49
2022/10/09 04:00:35;;;;;;;17.83;7.50;;;6.20;99.90;;;;;;5056598;28;20041;-48
2022/10/09 04:03:00;;;;;;;19.45;7.88;;;6.20;99.90;;;;;;5058848;28;20402;-49
2022/10/09 04:05:26;;;;;;;12.48;8.07;;;6.20;99.90;;;;;;5058874;28;20048;-49
2022/10/09 04:07:52;;;;;;;16.02;7.88;;;6.20;99.90;;;;;;5055621;28;20036;-51
2022/10/09 04:10:17;;;;;;;15.50;8.68;;;6.20;99.90;;;;;;5058244;28;20041;-51
2022/10/09 04:12:43;;;;;;;16.23;8.27;;;6.40;99.90;;;;;;5059126;28;20052;-50
2022/10/09 04:15:10;;;;;;;13.23;8.15;;;6.40;99.90;;;;;;5062252;28;20041;-49
2022/10/09 04:17:35;;;;;;;13.35;7.82;;;6.30;99.90;;;;;;5054767;28;20107;-52
2022/10/09 04:20:01;;;;;;;12.60;7.55;;;6.30;99.90;;;;;;5055081;28;20064;-52
2022/10/09 04:22:27;;;;;;;13.23;7.88;;;6.30;99.90;;;;;;5057867;28;20380;-51
2022/10/09 04:24:52;;;;;;;15.82;8.55;;;6.20;99.90;;;;;;5060658;28;20533;-51
2022/10/09 04:27:19;;;;;;;12.73;7.38;;;6.10;99.90;;;;;;5063563;28;21024;-48
2022/10/09 04:29:44;;;;;;;14.23;7.95;;;6.10;99.90;;;;;;5062284;28;20695;-51
2022/10/09 04:32:10;;;;;;;14.13;8.02;;;6.00;99.90;;;;;;5061490;28;20047;-47
2022/10/09 04:34:35;;;;;;;11.48;8.18;;;6.00;99.90;;;;;;5061293;28;20044;-50
2022/10/09 04:37:01;;;;;;;16.80;8.73;;;5.90;99.90;;;;;;5059410;28;20094;-51
2022/10/09 04:39:27;;;;;;;14.50;8.13;;;5.90;99.90;;;;;;5060038;28;20040;-51
2022/10/09 04:41:52;;;;;;;13.30;8.15;;;5.90;99.90;;;;;;5059724;28;20048;-51
2022/10/09 04:44:18;;;;;;;12.20;8.20;;;6.00;99.90;;;;;;5060056;28;20072;-49
2022/10/09 04:46:43;;;;;;;13.70;8.77;;;5.90;99.90;;;;;;5060663;28;20445;-47
2022/10/09 04:49:13;;;;;;;10.32;8.63;;;5.90;99.90;;;;;;5058994;28;20090;-53
2022/10/09 04:51:39;;;;;;;14.00;8.48;;;5.90;99.90;;;;;;5059885;28;20045;-51
2022/10/09 04:54:05;;;;;;;13.32;8.55;;;5.80;99.90;;;;;;5059525;28;20090;-51
2022/10/09 04:56:30;;;;;;;18.13;9.70;;;5.80;99.90;;;;;;5060106;28;20045;-49
2022/10/09 04:58:56;;;;;;;10.20;8.50;;;5.80;99.90;;;;;;5061088;28;20040;-49
2022/10/09 05:01:24;;;;;;;10.48;8.45;;;5.80;99.90;;;;;;5062305;28;20052;-50
2022/10/09 05:03:50;;;;;;;14.13;8.70;;;5.80;99.90;;;;;;5060091;28;20041;-50
2022/10/09 05:06:17;;;;;;;12.43;8.10;;;5.80;99.90;;;;;;5064747;28;20037;-52
2022/10/09 05:08:43;;;;;;;12.68;8.43;;;5.80;99.90;;;;;;5057976;28;20040;-49
2022/10/09 05:11:17;;;;;;;12.07;8.35;;;5.70;99.90;;;;;;5058777;28;20044;-49
2022/10/09 05:13:48;;;;;;;14.05;8.80;;;5.70;99.90;;;;;;5058969;28;20051;-47
2022/10/09 05:16:16;;;;;;;13.65;7.85;;;5.60;99.90;;;;;;5059764;28;20094;-50
2022/10/09 05:18:43;;;;;;;;;;;5.60;99.90;;;;;;5060943;28;20048;-49
2022/10/09 05:21:09;;;;;;;12.02;7.55;;;5.60;99.90;;;;;;5058666;28;19924;-47
2022/10/09 05:23:34;;;;;;;13.43;8.60;;;5.60;99.90;;;;;;5059326;28;20414;-49
2022/10/09 05:26:06;;;;;;;15.05;8.52;;;5.50;99.90;;;;;;5056086;28;20032;-48
2022/10/09 05:28:32;;;;;;;9.32;7.05;;;5.60;99.90;;;;;;5056270;28;20510;-47
2022/10/09 05:30:58;;;;;;;16.98;9.50;;;5.50;99.90;;;;;;5056559;28;20090;-48
2022/10/09 05:33:24;;;;;;;13.93;9.93;;;5.50;99.90;;;;;;5057110;28;20045;-48
2022/10/09 05:35:58;;;;;;;16.15;12.13;;;5.40;99.90;;;;;;5054367;28;20047;-53
2022/10/09 05:38:25;;;;;;;17.90;11.40;;;5.50;99.90;;;;;;5052616;28;20064;-52
2022/10/09 05:40:58;;;;;;;16.92;11.40;;;5.50;99.90;;;;;;5054282;28;20041;-48
2022/10/09 05:43:30;;;;;;;13.75;11.27;;;5.60;99.90;;;;;;5053112;28;20048;-48
2022/10/09 05:46:11;;;;;;;16.13;11.48;;;5.50;99.90;;;;;;5061545;28;20048;-50
2022/10/09 05:48:39;;;;;;;17.30;11.30;;;5.50;99.90;;;;;;5057024;28;20048;-50
2022/10/09 05:51:14;;;;;;;18.73;12.25;;;5.60;99.90;;;;;;5058629;28;20693;-52
2022/10/09 05:53:41;;;;;;;19.33;13.07;;;5.50;99.90;;;;;;5062721;28;20423;-51
2022/10/09 05:56:31;;;;;;;21.00;13.27;;;5.60;99.90;;;;;;5057270;28;20045;-51
2022/10/09 05:58:57;;;;;;;19.45;14.35;;;5.60;99.90;;;;;;5056428;28;20132;-50
2022/10/09 06:01:27;;;;;;;16.33;13.48;;;5.60;99.90;;;;;;5054425;28;20159;-49
2022/10/09 06:03:55;;;;;;;21.48;14.32;;;5.70;99.90;;;;;;5054116;28;20041;-52
2022/10/09 06:06:23;;;;;;;22.27;14.23;;;5.60;99.90;;;;;;5047926;28;20053;-47
2022/10/09 06:08:49;;;;;;;;;;;5.70;99.90;;;;;;5052894;28;20458;-49
2022/10/09 06:11:21;;;;;;;17.00;13.45;;;5.70;99.90;;;;;;5061485;28;20331;-50
2022/10/09 06:13:48;;;;;;;27.33;16.58;;;5.70;99.90;;;;;;5056713;28;20131;-52
2022/10/09 06:16:15;;;;;;;18.75;14.10;;;5.70;99.90;;;;;;5056619;28;20033;-50
2022/10/09 06:18:42;;;;;;;27.92;15.73;;;5.70;99.90;;;;;;5056250;28;20053;-51
2022/10/09 06:21:08;;;;;;;22.88;16.45;;;5.70;99.90;;;;;;5061263;28;20403;-52
2022/10/09 06:23:34;;;;;;;22.05;15.32;;;5.80;99.90;;;;;;5055478;28;20047;-51
2022/10/09 06:26:06;;;;;;;23.27;16.73;;;5.90;99.90;;;;;;5060481;28;20040;-52
2022/10/09 06:28:33;;;;;;;21.20;15.60;;;5.90;99.90;;;;;;5056290;28;20399;-53
2022/10/09 06:31:08;;;;;;;20.35;15.52;;;6.00;99.90;;;;;;5055599;28;20041;-51
2022/10/09 06:33:36;;;;;;;23.48;16.17;;;5.90;99.90;;;;;;5058463;28;20036;-52
2022/10/09 06:36:07;;;;;;;21.48;16.50;;;6.10;99.90;;;;;;5053636;28;20500;-50
2022/10/09 06:38:34;;;;;;;21.63;15.88;;;6.10;99.90;;;;;;5058721;28;20047;-52
2022/10/09 06:41:04;;;;;;;25.55;17.23;;;6.20;99.90;;;;;;5056610;28;20091;-51
2022/10/09 06:43:30;;;;;;;24.23;16.65;;;6.50;99.90;;;;;;5059266;28;20040;-47
2022/10/09 06:46:00;;;;;;;24.45;16.88;;;6.60;99.90;;;;;;5054101;28;20049;-49
2022/10/09 06:48:27;;;;;;;18.40;15.93;;;6.60;99.90;;;;;;5056823;28;20482;-50
2022/10/09 06:50:52;;;;;;;22.87;15.70;;;6.70;99.90;;;;;;5051829;28;20486;-48
2022/10/09 06:53:18;;;;;;;20.75;16.08;;;6.80;99.90;;;;;;5053783;28;20287;-52
2022/10/09 06:55:52;;;;;;;27.00;16.42;;;6.80;99.90;;;;;;5056632;28;20509;-47
2022/10/09 06:58:17;;;;;;;18.90;14.60;;;7.00;99.90;;;;;;5059357;28;20407;-51
2022/10/09 07:00:43;;;;;;;21.52;16.05;;;7.00;99.90;;;;;;5055871;28;20047;-49
2022/10/09 07:03:09;;;;;;;22.08;15.85;;;7.20;99.90;;;;;;5057310;28;20397;-50
2022/10/09 07:05:34;;;;;;;22.60;15.93;;;7.30;99.90;;;;;;5055817;28;20028;-50
2022/10/09 07:08:00;;;;;;;25.38;15.48;;;7.40;99.90;;;;;;5054287;28;20040;-50
2022/10/09 07:10:26;;;;;;;20.38;14.13;;;7.50;99.90;;;;;;5054603;28;20441;-48
2022/10/09 07:12:51;;;;;;;21.85;14.60;;;7.70;99.90;;;;;;5057766;28;20040;-51
2022/10/09 07:15:17;;;;;;;18.20;14.27;;;7.70;99.90;;;;;;5053528;28;20052;-50
2022/10/09 07:17:43;;;;;;;20.73;14.77;;;7.90;99.90;;;;;;5064562;28;20049;-48
2022/10/09 07:20:08;;;;;;;19.30;14.43;;;7.90;99.90;;;;;;5055027;28;20036;-52
2022/10/09 07:22:35;;;;;;;18.52;13.70;;;8.00;99.90;;;;;;5060305;28;20443;-51
2022/10/09 07:25:00;;;;;;;18.38;13.70;;;8.10;99.90;;;;;;5061119;28;20040;-51
2022/10/09 07:27:26;;;;;;;19.38;13.38;;;8.20;99.90;;;;;;5061083;28;20067;-50
2022/10/09 07:29:52;;;;;;;18.95;13.60;;;8.30;99.90;;;;;;5062657;28;20272;-48
2022/10/09 07:32:18;;;;;;;18.08;13.18;;;;;;;;;;5053269;28;20045;-52
2022/10/09 07:34:43;;;;;;;17.70;13.57;;;8.60;99.90;;;;;;5056321;28;20036;-51
2022/10/09 07:37:09;;;;;;;19.77;12.90;;;8.70;99.90;;;;;;5061078;28;20052;-53
2022/10/09 07:39:35;;;;;;;13.80;12.13;;;8.80;99.90;;;;;;5055173;28;20041;-51
2022/10/09 07:42:01;;;;;;;19.55;12.05;;;8.90;99.90;;;;;;5060692;28;20440;-52
2022/10/09 07:44:27;;;;;;;18.50;11.82;;;9.00;99.90;;;;;;5063151;28;20434;-52
2022/10/09 07:46:53;;;;;;;15.75;11.23;;;9.10;99.90;;;;;;5062251;28;20048;-51
2022/10/09 07:49:18;;;;;;;17.30;11.95;;;9.10;99.90;;;;;;5061507;28;20035;-52
2022/10/09 07:51:44;;;;;;;18.42;12.05;;;9.20;99.90;;;;;;5061747;28;20448;-49
2022/10/09 07:54:10;;;;;;;16.05;11.25;;;9.30;99.90;;;;;;5061452;28;20037;-52
2022/10/09 07:56:39;;;;;;;16.23;11.48;;;9.40;99.90;;;;;;5060652;28;20501;-51
2022/10/09 07:59:07;;;;;;;15.60;11.15;;;9.50;99.90;;;;;;5057922;28;20036;-50
2022/10/09 08:01:33;;;;;;;;;;;9.60;99.90;;;;;;5056189;28;20048;-51
2022/10/09 08:04:00;;;;;;;14.68;11.10;;;9.60;99.90;;;;;;5058721;28;20574;-51
2022/10/09 08:06:26;;;;;;;17.08;11.70;;;9.70;99.90;;;;;;5059392;28;20075;-48
2022/10/09 08:08:54;;;;;;;18.58;12.30;;;9.80;99.90;;;;;;5062190;28;20064;-53
2022/10/09 08:11:21;;;;;;;15.95;11.88;;;9.90;99.90;;;;;;5056441;28;20059;-51
2022/10/09 08:13:48;;;;;;;16.02;11.68;;;10.00;99.90;;;;;;5059521;28;20456;-48
2022/10/09 08:16:14;;;;;;;15.40;10.70;;;10.00;99.90;;;;;;5060297;28;20044;-51
2022/10/09 08:18:40;;;;;;;16.63;10.60;;;10.10;99.90;;;;;;5060594;28;20036;-52
2022/10/09 08:21:09;;;;;;;14.57;10.40;;;10.30;99.90;;;;;;5061743;28;20452;-50
2022/10/09 08:23:35;;;;;;;19.42;10.10;;;10.30;99.90;;;;;;5056730;28;20389;-50
2022/10/09 08:26:01;;;;;;;17.40;10.80;;;10.50;99.90;;;;;;5060061;28;20944;-49
2022/10/09 08:28:26;;;;;;;16.88;9.43;;;10.60;99.90;;;;;;5061020;28;20036;-51
2022/10/09 08:30:52;;;;;;;14.50;10.70;;;10.70;99.90;;;;;;5058273;28;20127;-52
2022/10/09 08:33:20;;;;;;;13.38;8.88;;;10.90;99.90;;;;;;5059934;28;20036;-51
2022/10/09 08:35:48;;;;;;;12.00;8.43;;;10.90;99.90;;;;;;5056713;28;20525;-50
2022/10/09 08:38:13;;;;;;;14.80;8.03;;;11.10;99.90;;;;;;5059127;28;20044;-48
2022/10/09 08:41:07;;;;;;;13.02;7.70;;;11.20;99.90;;;;;;5059150;28;20299;-50
2022/10/09 08:43:41;;;;;;;13.18;7.47;;;11.20;99.90;;;;;;5056185;28;20055;-50
2022/10/09 08:46:16;;;;;;;13.02;7.43;;;11.30;99.90;;;;;;5059423;28;20139;-52
2022/10/09 08:48:45;;;;;;;10.75;7.25;;;11.30;99.90;;;;;;5061711;28;20123;-48
2022/10/09 08:51:27;;;;;;;15.20;7.35;;;11.50;99.90;;;;;;5061675;28;20056;-48
2022/10/09 08:54:22;;;;;;;11.13;6.50;;;11.50;99.90;;;;;;5059549;28;20429;-50
2022/10/09 08:56:49;;;;;;;15.35;6.32;;;11.70;99.90;;;;;;5058384;28;20048;-52
2022/10/09 08:59:15;;;;;;;14.27;6.00;;;11.80;99.90;;;;;;5058949;28;20371;-48
2022/10/09 09:01:49;;;;;;;13.10;6.63;;;12.00;99.90;;;;;;5060711;28;20043;-49
2022/10/09 09:04:37;;;;;;;11.15;6.50;;;12.00;99.90;;;;;;5060882;28;20043;-53
2022/10/09 09:07:33;;;;;;;8.45;5.50;;;12.10;99.90;;;;;;5063336;28;20045;-52
2022/10/09 09:10:19;;;;;;;9.02;5.72;;;12.30;99.90;;;;;;5058042;28;20056;-52
2022/10/09 09:12:58;;;;;;;11.27;5.63;;;12.30;99.90;;;;;;5060154;28;20041;-49
2022/10/09 09:15:49;;;;;;;13.35;6.03;;;12.50;99.90;;;;;;5055834;28;20411;-47
2022/10/09 09:18:36;;;;;;;13.48;4.88;;;12.60;99.90;;;;;;5057366;28;20512;-48
2022/10/09 09:21:25;;;;;;;13.00;5.95;;;12.70;99.90;;;;;;5057408;28;20056;-48
2022/10/09 09:23:51;;;;;;;9.82;5.43;;;;;;;;;;5065193;28;20044;-49
2022/10/09 09:26:22;;;;;;;9.90;5.72;;;12.80;99.90;;;;;;5064147;28;20059;-49
2022/10/09 09:28:51;;;;;;;8.82;5.15;;;12.90;99.90;;;;;;5059850;28;20131;-51
2022/10/09 09:31:26;;;;;;;11.45;5.47;;;13.00;99.90;;;;;;5040463;28;20063;-48
2022/10/09 09:34:10;;;;;;;11.20;5.63;;;13.20;99.90;;;;;;5048126;28;20055;-50
2022/10/09 09:36:56;;;;;;;12.00;5.68;;;13.30;99.90;;;;;;5054856;28;20052;-50
2022/10/09 09:39:25;;;;;;;13.23;5.50;;;13.30;99.90;;;;;;5057434;28;20076;-49
2022/10/09 09:41:54;;;;;;;11.23;5.68;;;13.40;99.90;;;;;;5059194;28;20137;-50
2022/10/09 09:44:20;;;;;;;11.52;4.35;;;13.40;99.90;;;;;;5050749;28;20045;-54
2022/10/09 09:46:48;;;;;;;9.98;4.75;;;13.60;99.90;;;;;;5051608;28;20056;-55
2022/10/09 09:49:14;;;;;;;;;;;13.70;99.90;;;;;;5057597;28;20090;-50
2022/10/09 09:51:40;;;;;;;16.03;5.40;;;13.80;99.90;;;;;;5057713;28;19933;-53
2022/10/09 09:54:23;;;;;;;12.60;5.18;;;13.80;99.90;;;;;;5054627;28;21174;-52
2022/10/09 09:56:51;;;;;;;15.10;5.88;;;13.90;99.90;;;;;;5057010;28;20079;-52
2022/10/09 09:59:30;;;;;;;9.40;5.03;;;14.10;99.90;;;;;;5056447;28;20094;-53
2022/10/09 10:02:13;;;;;;;10.98;5.25;;;14.10;99.90;;;;;;5052135;28;20067;-52
2022/10/09 10:04:49;;;;;;;10.45;4.80;;;14.10;99.90;;;;;;5054891;28;20045;-52
2022/10/09 10:07:31;;;;;;;10.75;4.00;;;14.10;99.90;;;;;;5066247;28;20052;-52
2022/10/09 10:10:15;;;;;;;12.27;4.95;;;14.20;99.90;;;;;;5064630;28;20123;-51
2022/10/09 10:12:47;;;;;;;12.38;4.95;;;14.30;99.90;;;;;;5057956;28;20037;-52
2022/10/09 10:15:17;;;;;;;11.02;4.40;;;14.40;99.90;;;;;;5059572;28;20132;-51
2022/10/09 10:17:43;;;;;;;16.52;5.38;;;14.70;99.90;;;;;;5055406;28;20135;-51
2022/10/09 10:20:16;;;;;;;12.38;5.18;;;14.50;99.90;;;;;;5057755;28;20040;-52
2022/10/09 10:22:52;;;;;;;13.35;5.82;;;14.60;99.90;;;;;;5059725;28;20075;-54
2022/10/09 10:25:22;;;;;;;12.15;4.82;;;14.60;99.90;;;;;;5056725;28;20052;-51
2022/10/09 10:27:54;;;;;;;11.35;5.60;;;14.60;99.90;;;;;;5057922;28;20477;-52
2022/10/09 10:30:20;;;;;;;14.40;5.70;;;14.60;99.90;;;;;;5059271;28;20043;-50
2022/10/09 10:33:21;;;;;;;12.50;5.10;;;14.80;99.90;;;;;;5059303;28;20662;-48
2022/10/09 10:35:51;;;;;;;7.95;3.70;;;14.90;99.90;;;;;;5060593;28;20547;-53
2022/10/09 10:38:28;;;;;;;11.32;4.20;;;15.00;99.90;;;;;;5069567;28;20036;-49
2022/10/09 10:41:16;;;;;;;9.18;3.42;;;15.10;99.90;;;;;;5057985;28;20048;-50
2022/10/09 10:43:48;;;;;;;9.90;4.03;;;15.30;99.90;;;;;;5070831;28;20041;-50
2022/10/09 10:46:24;;;;;;;8.27;3.95;;;15.30;99.90;;;;;;5071087;28;20490;-53
2022/10/09 10:48:51;;;;;;;7.80;3.60;;;15.10;99.90;;;;;;5070781;28;20048;-49
2022/10/09 10:51:31;;;;;;;10.13;4.15;;;15.20;99.90;;;;;;5064853;28;20412;-49
2022/10/09 10:54:11;;;;;;;12.40;4.35;;;15.30;99.90;;;;;;5070187;28;20054;-52
2022/10/09 10:56:41;;;;;;;10.35;4.00;;;15.30;99.90;;;;;;5068857;28;20033;-51
2022/10/09 10:59:06;;;;;;;9.15;3.72;;;15.30;99.90;;;;;;5070972;28;20402;-49
2022/10/09 11:01:49;;;;;;;8.73;4.20;;;15.30;99.90;;;;;;5076888;28;20035;-51
2022/10/09 11:04:52;;;;;;;10.38;4.32;;;15.40;99.90;;;;;;5075234;28;20048;-52
2022/10/09 11:07:32;;;;;;;6.85;3.08;;;15.50;99.90;;;;;;5078490;28;20048;-51
2022/10/09 11:10:01;;;;;;;8.25;3.10;;;15.50;99.90;;;;;;5093580;28;20051;-53
2022/10/09 11:13:13;;;;;;;8.43;3.28;;;15.50;99.90;;;;;;5083515;28;20464;-53
2022/10/09 11:16:16;;;;;;;9.10;2.92;;;15.50;99.90;;;;;;5087520;28;20064;-48
2022/10/09 11:19:19;;;;;;;7.55;2.97;;;15.70;99.90;;;;;;5077826;28;20044;-50
2022/10/09 11:22:09;;;;;;;8.05;4.22;;;15.80;99.90;;;;;;5091334;28;20094;-53
2022/10/09 11:25:12;;;;;;;7.25;2.92;;;15.80;99.90;;;;;;5096146;28;20048;-49
2022/10/09 11:27:55;;;;;;;6.70;2.85;;;15.90;99.90;;;;;;5084407;28;20044;-51
2022/10/09 11:30:21;;;;;;;9.88;3.70;;;15.90;99.90;;;;;;5076310;28;20044;-49
2022/10/09 11:33:06;;;;;;;13.10;3.60;;;15.90;99.90;;;;;;5069284;28;20055;-49
2022/10/09 11:36:14;;;;;;;8.02;3.45;;;16.00;99.90;;;;;;5079204;28;20063;-50
2022/10/09 11:38:50;;;;;;;7.50;3.35;;;15.90;99.90;;;;;;5079249;28;20094;-49
2022/10/09 11:41:16;;;;;;;6.28;3.42;;;16.10;99.90;;;;;;5083370;28;20068;-51
2022/10/09 11:43:51;;;;;;;7.78;3.38;;;16.10;99.90;;;;;;5076753;28;20454;-49
2022/10/09 11:46:48;;;;;;;6.55;3.47;;;16.10;99.90;;;;;;5077203;28;20140;-51
2022/10/09 11:49:36;;;;;;;10.55;3.10;;;16.00;99.90;;;;;;5063902;28;20044;-50
2022/10/09 11:52:37;;;;;;;7.10;2.85;;;16.00;99.90;;;;;;5082425;28;20127;-49
2022/10/09 11:55:16;;;;;;;8.82;2.90;;;16.00;99.90;;;;;;5086459;28;20149;-49
2022/10/09 11:57:42;;;;;;;6.03;3.05;;;16.10;99.90;;;;;;5074673;28;20041;-49
2022/10/09 12:00:09;;;;;;;6.97;2.97;;;16.10;99.90;;;;;;5083406;28;20550;-50
2022/10/09 12:02:36;;;;;;;8.57;2.63;;;16.10;99.90;;;;;;5073388;28;20049;-49
2022/10/09 12:05:26;;;;;;;7.95;3.00;;;16.10;99.90;;;;;;5076818;28;20032;-53
2022/10/09 12:07:52;;;;;;;6.82;2.58;;;16.10;99.90;;;;;;5075714;28;20048;-49
2022/10/09 12:10:29;;;;;;;5.60;2.65;;;16.10;99.90;;;;;;5077813;28;20047;-53
2022/10/09 12:12:58;;;;;;;12.02;3.15;;;16.20;99.90;;;;;;5075747;28;20036;-51
2022/10/09 12:15:37;;;;;;;7.38;2.72;;;16.30;99.90;;;;;;5079453;28;20056;-49
2022/10/09 12:18:33;;;;;;;6.60;2.60;;;16.40;99.90;;;;;;5076409;28;20133;-52
2022/10/09 12:21:03;;;;;;;5.30;2.63;;;16.30;99.90;;;;;;5064652;28;20384;-48
2022/10/09 12:23:33;;;;;;;8.15;2.40;;;16.20;99.90;;;;;;5087088;28;20041;-49
2022/10/09 12:26:00;;;;;;;7.68;2.60;;;16.30;99.90;;;;;;5078780;28;20106;-50
2022/10/09 12:28:39;;;;;;;5.80;2.60;;;16.30;99.90;;;;;;5087058;28;20123;-52
2022/10/09 12:31:16;;;;;;;5.32;2.10;;;16.30;99.90;;;;;;5071572;28;20121;-50
2022/10/09 12:33:51;;;;;;;6.70;2.60;;;16.40;99.90;;;;;;5075591;28;20137;-49
2022/10/09 12:36:28;;;;;;;6.90;2.33;;;16.40;99.90;;;;;;5071229;28;20170;-49
2022/10/09 12:38:54;;;;;;;7.33;2.50;;;16.50;99.90;;;;;;5082720;28;20036;-49
2022/10/09 12:41:28;;;;;;;9.35;2.40;;;16.50;99.90;;;;;;5082443;28;20356;-49
2022/10/09 12:43:55;;;;;;;5.20;1.98;;;16.60;99.90;;;;;;5076371;28;20044;-51
2022/10/09 12:46:33;;;;;;;6.65;2.20;;;16.60;99.90;;;;;;5073011;28;20541;-50
2022/10/09 12:49:00;;;;;;;7.60;2.00;;;16.50;99.90;;;;;;5081592;28;20119;-51
2022/10/09 12:51:29;;;;;;;4.78;1.90;;;16.50;99.90;;;;;;5075803;28;20050;-52
2022/10/09 12:53:54;;;;;;;6.45;1.90;;;16.50;99.90;;;;;;5086613;28;20032;-49
2022/10/09 12:56:25;;;;;;;8.18;2.08;;;16.50;99.90;;;;;;5087474;28;20043;-49
2022/10/09 12:58:51;;;;;;;5.20;2.15;;;16.50;99.90;;;;;;5084287;28;20453;-51
2022/10/09 13:01:18;;;;;;;6.25;2.28;;;16.60;99.90;;;;;;5076648;28;20474;-48
2022/10/09 13:04:03;;;;;;;6.50;1.87;;;16.60;99.90;;;;;;5077225;28;20037;-50
2022/10/09 13:06:41;;;;;;;7.68;2.00;;;16.70;99.90;;;;;;5077040;28;20295;-51